createdAt,value
2019-02-28T00:00:15.776Z,1010.1
2019-02-28T00:00:56.184Z,1010.08
2019-02-28T00:01:36.587Z,1010.1
2019-02-28T00:02:21.080Z,1010.05
2019-02-28T00:02:57.387Z,1010.03
2019-02-28T00:03:37.807Z,1010
2019-02-28T00:04:18.213Z,1010.04
2019-02-28T00:04:58.641Z,1010.05
2019-02-28T00:05:39.154Z,1010.03
2019-02-28T00:06:19.439Z,1010.05
2019-02-28T00:06:59.865Z,1010
2019-02-28T00:07:40.278Z,1009.99
2019-02-28T00:08:20.692Z,1010
2019-02-28T00:09:01.082Z,1009.98
2019-02-28T00:09:41.475Z,1009.98
2019-02-28T00:10:21.879Z,1009.99
2019-02-28T00:11:04.988Z,1009.98
2019-02-28T00:13:47.095Z,1009.97
2019-02-28T00:16:38.191Z,1009.96
2019-02-28T00:18:43.152Z,1009.82
2019-02-28T00:20:36.482Z,1009.93
2019-02-28T00:21:14.812Z,1009.99
2019-02-28T00:21:55.255Z,1009.97
2019-02-28T00:22:35.622Z,1009.98
2019-02-28T00:23:16.030Z,1009.97
2019-02-28T00:23:57.378Z,1009.96
2019-02-28T00:24:36.853Z,1009.96
2019-02-28T00:25:17.277Z,1010
2019-02-28T00:25:57.659Z,1009.96
2019-02-28T00:26:38.059Z,1009.97
2019-02-28T00:27:21.290Z,1009.97
2019-02-28T00:27:58.828Z,1009.98
2019-02-28T00:28:39.197Z,1009.98
2019-02-28T00:29:19.575Z,1009.95
2019-02-28T00:29:59.956Z,1009.96
2019-02-28T00:30:40.717Z,1009.9
2019-02-28T00:31:20.713Z,1009.97
2019-02-28T00:32:01.087Z,1009.92
2019-02-28T00:32:41.494Z,1009.88
2019-02-28T00:33:21.868Z,1009.87
2019-02-28T00:34:05.322Z,1009.89
2019-02-28T00:34:42.637Z,1009.85
2019-02-28T00:35:23.037Z,1009.83
2019-02-28T00:36:03.481Z,1009.83
2019-02-28T00:36:43.887Z,1009.8
2019-02-28T00:37:25.535Z,1009.77
2019-02-28T00:38:04.683Z,1009.75
2019-02-28T00:38:45.081Z,1009.77
2019-02-28T00:39:25.499Z,1009.78
2019-02-28T00:40:06.564Z,1009.74
2019-02-28T00:40:46.274Z,1009.74
2019-02-28T00:41:26.674Z,1009.75
2019-02-28T00:42:07.070Z,1009.75
2019-02-28T00:49:39.762Z,1009.79
2019-02-28T00:50:35.823Z,1009.71
2019-02-28T00:53:55.390Z,1009.75
2019-02-28T00:54:35.636Z,1009.72
2019-02-28T00:55:16.049Z,1009.71
2019-02-28T00:55:56.438Z,1009.73
2019-02-28T00:56:36.844Z,1009.71
2019-02-28T00:57:17.272Z,1009.71
2019-02-28T00:57:57.702Z,1009.72
2019-02-28T00:58:38.113Z,1009.7
2019-02-28T00:59:18.512Z,1009.7
2019-02-28T00:59:58.931Z,1009.73
2019-02-28T01:00:39.332Z,1009.7
2019-02-28T01:01:19.740Z,1009.71
2019-02-28T01:02:00.134Z,1009.71
2019-02-28T01:02:40.539Z,1009.72
2019-02-28T01:03:20.959Z,1009.67
2019-02-28T01:04:01.355Z,1009.66
2019-02-28T01:04:41.736Z,1009.65
2019-02-28T01:05:22.134Z,1009.63
2019-02-28T01:06:02.549Z,1009.62
2019-02-28T01:06:42.939Z,1009.59
2019-02-28T01:07:23.364Z,1009.6
2019-02-28T01:08:03.762Z,1009.58
2019-02-28T01:14:16.655Z,1009.46
2019-02-28T01:14:57.001Z,1009.49
2019-02-28T01:15:37.399Z,1009.43
2019-02-28T01:16:19.289Z,1009.47
2019-02-28T01:16:58.210Z,1009.44
2019-02-28T01:17:38.566Z,1009.45
2019-02-28T01:18:18.998Z,1009.39
2019-02-28T01:18:59.360Z,1009.43
2019-02-28T01:19:41.224Z,1009.41
2019-02-28T01:20:20.176Z,1009.42
2019-02-28T01:21:00.580Z,1009.43
2019-02-28T01:21:40.973Z,1009.43
2019-02-28T01:22:21.361Z,1009.46
2019-02-28T01:23:01.793Z,1009.42
2019-02-28T01:23:42.157Z,1009.41
2019-02-28T01:24:22.557Z,1009.42
2019-02-28T01:25:02.977Z,1009.42
2019-02-28T01:25:43.362Z,1009.41
2019-02-28T01:26:23.757Z,1009.41
2019-02-28T01:27:04.161Z,1009.42
2019-02-28T01:30:48.700Z,1009.35
2019-02-28T01:31:38.633Z,1009.33
2019-02-28T01:33:36.749Z,1009.3
2019-02-28T01:34:17.073Z,1009.31
2019-02-28T01:34:57.507Z,1009.29
2019-02-28T01:35:40.731Z,1009.27
2019-02-28T01:36:18.328Z,1009.27
2019-02-28T01:36:58.723Z,1009.27
2019-02-28T01:37:39.103Z,1009.3
2019-02-28T01:38:19.528Z,1009.25
2019-02-28T01:38:59.900Z,1009.26
2019-02-28T01:39:40.308Z,1009.26
2019-02-28T01:40:20.708Z,1009.28
2019-02-28T01:41:01.129Z,1009.24
2019-02-28T01:41:42.238Z,1009.22
2019-02-28T01:42:21.915Z,1009.24
2019-02-28T01:43:02.333Z,1009.24
2019-02-28T01:43:42.749Z,1009.25
2019-02-28T01:44:23.187Z,1009.24
2019-02-28T01:45:03.553Z,1009.21
2019-02-28T01:45:44.395Z,1009.21
2019-02-28T01:46:24.332Z,1009.23
2019-02-28T01:47:04.754Z,1009.25
2019-02-28T01:47:45.202Z,1009.22
2019-02-28T01:48:25.581Z,1009.19
2019-02-28T01:49:05.989Z,1009.19
2019-02-28T01:49:46.406Z,1009.21
2019-02-28T01:50:29.601Z,1009.22
2019-02-28T01:51:07.195Z,1009.19
2019-02-28T01:51:47.632Z,1009.22
2019-02-28T01:52:28.039Z,1009.21
2019-02-28T01:53:08.453Z,1009.22
2019-02-28T01:53:50.356Z,1009.19
2019-02-28T01:54:29.256Z,1009.16
2019-02-28T01:55:09.689Z,1009.16
2019-02-28T01:55:50.016Z,1009.16
2019-02-28T01:56:30.396Z,1009.17
2019-02-28T01:57:10.813Z,1009.15
2019-02-28T01:57:51.211Z,1009.15
2019-02-28T01:58:31.625Z,1009.14
2019-02-28T01:59:12.016Z,1009.14
2019-02-28T01:59:53.015Z,1009.16
2019-02-28T02:00:32.844Z,1009.14
2019-02-28T02:01:13.267Z,1009.13
2019-02-28T02:01:53.654Z,1009.07
2019-02-28T02:02:34.070Z,1009.13
2019-02-28T02:03:14.463Z,1009.09
2019-02-28T02:03:54.882Z,1009.14
2019-02-28T02:04:35.303Z,1009.06
2019-02-28T02:05:16.812Z,1009.08
2019-02-28T02:05:56.166Z,1009.08
2019-02-28T02:06:36.557Z,1009.07
2019-02-28T02:07:16.981Z,1009.06
2019-02-28T02:07:57.367Z,1009.07
2019-02-28T02:08:38.419Z,1009.05
2019-02-28T02:09:18.172Z,1009.08
2019-02-28T02:09:58.583Z,1009.08
2019-02-28T02:10:39.002Z,1009.03
2019-02-28T02:11:19.421Z,1009.04
2019-02-28T02:11:59.841Z,1008.99
2019-02-28T02:12:40.236Z,1009.05
2019-02-28T02:13:20.630Z,1009
2019-02-28T02:14:01.015Z,1008.99
2019-02-28T02:14:44.500Z,1009.01
2019-02-28T02:18:10.083Z,1008.93
2019-02-28T02:18:57.991Z,1008.92
2019-02-28T02:19:38.342Z,1008.91
2019-02-28T02:20:18.801Z,1008.87
2019-02-28T02:21:00.113Z,1008.9
2019-02-28T02:21:39.562Z,1008.85
2019-02-28T02:22:19.956Z,1008.87
2019-02-28T02:23:00.380Z,1008.83
2019-02-28T02:23:40.811Z,1008.83
2019-02-28T02:24:21.267Z,1008.81
2019-02-28T02:25:02.838Z,1008.81
2019-02-28T02:25:42.075Z,1008.79
2019-02-28T02:26:22.600Z,1008.77
2019-02-28T02:27:03.071Z,1008.77
2019-02-28T02:27:43.440Z,1008.76
2019-02-28T02:28:26.564Z,1008.79
2019-02-28T02:29:04.391Z,1008.76
2019-02-28T02:29:44.798Z,1008.75
2019-02-28T02:30:25.130Z,1008.73
2019-02-28T02:31:05.603Z,1008.71
2019-02-28T02:31:46.085Z,1008.7
2019-02-28T02:32:26.445Z,1008.67
2019-02-28T02:33:13.479Z,1008.65
2019-02-28T02:35:24.240Z,1008.63
2019-02-28T02:36:04.776Z,1008.61
2019-02-28T02:36:45.185Z,1008.59
2019-02-28T02:37:26.325Z,1008.53
2019-02-28T02:38:06.033Z,1008.53
2019-02-28T02:38:46.419Z,1008.52
2019-02-28T02:39:26.796Z,1008.54
2019-02-28T02:40:07.275Z,1008.54
2019-02-28T02:40:47.628Z,1008.52
2019-02-28T02:41:28.009Z,1008.5
2019-02-28T02:42:11.271Z,1008.52
2019-02-28T02:42:50.059Z,1008.47
2019-02-28T02:43:29.198Z,1008.46
2019-02-28T02:45:41.501Z,1008.51
2019-02-28T02:46:24.912Z,1008.52
2019-02-28T02:47:20.725Z,1008.47
2019-02-28T02:50:51.446Z,1008.53
2019-02-28T02:51:48.756Z,1008.45
2019-02-28T02:53:41.851Z,1008.47
2019-02-28T02:54:21.305Z,1008.42
2019-02-28T02:55:01.670Z,1008.47
2019-02-28T02:55:42.060Z,1008.42
2019-02-28T02:56:22.553Z,1008.42
2019-02-28T02:57:02.865Z,1008.4
2019-02-28T02:57:43.275Z,1008.38
2019-02-28T02:58:27.738Z,1008.38
2019-02-28T02:59:03.998Z,1008.42
2019-02-28T02:59:44.383Z,1008.38
2019-02-28T03:00:24.786Z,1008.32
2019-02-28T03:01:05.170Z,1008.33
2019-02-28T03:01:45.544Z,1008.31
2019-02-28T03:02:28.632Z,1008.32
2019-02-28T03:03:07.789Z,1008.32
2019-02-28T03:03:46.734Z,1008.25
2019-02-28T03:04:27.131Z,1008.29
2019-02-28T03:05:07.504Z,1008.25
2019-02-28T03:05:47.906Z,1008.24
2019-02-28T03:06:28.319Z,1008.22
2019-02-28T03:07:08.743Z,1008.21
2019-02-28T03:07:49.123Z,1008.24
2019-02-28T03:08:35.606Z,1008.22
2019-02-28T03:09:11.179Z,1008.21
2019-02-28T03:09:50.337Z,1008.22
2019-02-28T03:10:30.840Z,1008.26
2019-02-28T03:11:11.180Z,1008.23
2019-02-28T03:11:51.582Z,1008.26
2019-02-28T03:12:32.943Z,1008.28
2019-02-28T03:13:12.375Z,1008.23
2019-02-28T03:13:52.809Z,1008.23
2019-02-28T03:14:33.200Z,1008.24
2019-02-28T03:15:13.616Z,1008.24
2019-02-28T03:15:54.018Z,1008.18
2019-02-28T03:16:34.626Z,1008.15
2019-02-28T03:17:14.833Z,1008.18
2019-02-28T03:17:55.256Z,1008.17
2019-02-28T03:18:35.654Z,1008.14
2019-02-28T03:19:16.153Z,1008.15
2019-02-28T03:19:56.471Z,1008.13
2019-02-28T03:20:41.094Z,1008.18
2019-02-28T03:21:17.324Z,1008.14
2019-02-28T03:21:57.688Z,1008.17
2019-02-28T03:22:38.110Z,1008.14
2019-02-28T03:23:18.516Z,1008.15
2019-02-28T03:23:58.943Z,1008.14
2019-02-28T03:24:39.374Z,1008.13
2019-02-28T03:25:19.771Z,1008.14
2019-02-28T03:26:05.161Z,1008.19
2019-02-28T03:26:41.822Z,1008.15
2019-02-28T03:27:20.971Z,1008.15
2019-02-28T03:28:01.395Z,1008.15
2019-02-28T03:28:41.797Z,1008.12
2019-02-28T03:29:22.218Z,1008.18
2019-02-28T03:30:02.636Z,1008.19
2019-02-28T03:30:43.029Z,1008.17
2019-02-28T03:31:23.455Z,1008.18
2019-02-28T03:32:03.895Z,1008.19
2019-02-28T03:32:44.230Z,1008.18
2019-02-28T03:33:28.391Z,1008.22
2019-02-28T03:34:12.683Z,1008.19
2019-02-28T03:34:54.576Z,1008.21
2019-02-28T03:35:25.850Z,1008.2
2019-02-28T03:36:06.269Z,1008.2
2019-02-28T03:36:54.977Z,1008.19
2019-02-28T03:37:32.684Z,1008.22
2019-02-28T03:38:11.223Z,1008.21
2019-02-28T03:38:49.569Z,1008.21
2019-02-28T03:39:28.303Z,1008.22
2019-02-28T03:40:08.701Z,1008.2
2019-02-28T03:40:49.110Z,1008.18
2019-02-28T03:41:29.528Z,1008.19
2019-02-28T03:42:09.934Z,1008.18
2019-02-28T03:42:50.322Z,1008.19
2019-02-28T03:43:30.714Z,1008.18
2019-02-28T03:44:11.152Z,1008.17
2019-02-28T03:44:56.594Z,1008.17
2019-02-28T03:45:34.989Z,1008.18
2019-02-28T03:46:12.354Z,1008.2
2019-02-28T03:46:52.744Z,1008.17
2019-02-28T03:47:33.155Z,1008.18
2019-02-28T03:48:13.537Z,1008.18
2019-02-28T03:48:53.949Z,1008.2
2019-02-28T03:49:34.342Z,1008.18
2019-02-28T03:50:14.744Z,1008.14
2019-02-28T03:50:56.468Z,1008.16
2019-02-28T03:51:35.573Z,1008.18
2019-02-28T03:52:15.963Z,1008.14
2019-02-28T03:52:56.365Z,1008.1
2019-02-28T03:53:36.797Z,1008.11
2019-02-28T03:54:17.221Z,1008.11
2019-02-28T03:55:03.083Z,1008.08
2019-02-28T03:55:40.637Z,1008.12
2019-02-28T03:56:18.427Z,1008.1
2019-02-28T03:56:58.859Z,1008.09
2019-02-28T03:57:39.289Z,1008.09
2019-02-28T03:58:19.704Z,1008.08
2019-02-28T03:59:00.116Z,1008.09
2019-02-28T03:59:40.552Z,1008.11
2019-02-28T04:00:20.949Z,1008.09
2019-02-28T04:01:08.541Z,1008.11
2019-02-28T04:01:45.438Z,1008.12
2019-02-28T04:02:22.571Z,1008.14
2019-02-28T04:03:02.614Z,1008.08
2019-02-28T04:03:43.013Z,1008.1
2019-02-28T04:04:23.384Z,1008.07
2019-02-28T04:05:03.788Z,1008.09
2019-02-28T04:05:44.186Z,1008.12
2019-02-28T04:06:24.592Z,1008.12
2019-02-28T04:07:04.956Z,1008.12
2019-02-28T04:07:52.172Z,1008.08
2019-02-28T04:08:29.229Z,1008.09
2019-02-28T04:09:08.312Z,1008.07
2019-02-28T04:09:46.595Z,1008.08
2019-02-28T04:10:26.998Z,1008.06
2019-02-28T04:11:07.416Z,1008.04
2019-02-28T04:11:47.802Z,1008.05
2019-02-28T04:12:28.227Z,1008.03
2019-02-28T04:13:08.622Z,1008.01
2019-02-28T04:13:52.384Z,1008.03
2019-02-28T04:14:32.987Z,1008.05
2019-02-28T04:15:11.098Z,1008.01
2019-02-28T04:16:07.368Z,1008.03
2019-02-28T04:16:30.668Z,1008.07
2019-02-28T04:17:11.059Z,1008.07
2019-02-28T04:17:51.482Z,1008.03
2019-02-28T04:18:31.880Z,1008.08
2019-02-28T04:19:12.340Z,1008.03
2019-02-28T04:19:58.566Z,1008.06
2019-02-28T04:20:37.291Z,1008.01
2019-02-28T04:21:13.582Z,1008.04
2019-02-28T04:21:54.025Z,1008.04
2019-02-28T04:22:34.437Z,1008.04
2019-02-28T04:23:14.896Z,1008.04
2019-02-28T04:23:55.277Z,1008.05
2019-02-28T04:24:35.692Z,1008.06
2019-02-28T04:25:22.413Z,1008.05
2019-02-28T04:25:57.775Z,1008.04
2019-02-28T04:26:36.941Z,1008.04
2019-02-28T04:27:17.365Z,1008.06
2019-02-28T04:27:57.806Z,1008.1
2019-02-28T04:28:38.218Z,1008.08
2019-02-28T05:11:01.907Z,1007.82
2019-02-28T05:11:43.894Z,1007.82
2019-02-28T05:12:24.850Z,1007.82
2019-02-28T05:13:05.558Z,1007.8
2019-02-28T05:13:48.680Z,1007.85
2019-02-28T05:14:26.375Z,1007.85
2019-02-28T05:15:06.946Z,1007.85
2019-02-28T05:15:47.249Z,1007.83
2019-02-28T05:16:27.642Z,1007.83
2019-02-28T05:17:08.110Z,1007.87
2019-02-28T05:17:48.585Z,1007.84
2019-02-28T05:18:28.969Z,1007.86
2019-02-28T05:19:09.399Z,1007.81
2019-02-28T05:19:49.834Z,1007.82
2019-02-28T05:20:30.227Z,1007.79
2019-02-28T05:21:10.619Z,1007.79
2019-02-28T05:21:53.406Z,1007.79
2019-02-28T05:22:31.516Z,1007.75
2019-02-28T05:23:12.031Z,1007.76
2019-02-28T05:23:52.416Z,1007.71
2019-02-28T05:24:32.855Z,1007.72
2019-02-28T05:25:17.279Z,1007.75
2019-02-28T05:25:53.741Z,1007.71
2019-02-28T05:26:34.173Z,1007.73
2019-02-28T05:27:14.582Z,1007.7
2019-02-28T05:27:55.072Z,1007.69
2019-02-28T05:28:40.136Z,1007.72
2019-02-28T05:29:16.553Z,1007.7
2019-02-28T05:29:57.198Z,1007.7
2019-02-28T05:30:37.865Z,1007.7
2019-02-28T05:31:18.538Z,1007.69
2019-02-28T05:32:00.932Z,1007.69
2019-02-28T05:32:40.428Z,1007.69
2019-02-28T05:33:20.785Z,1007.71
2019-02-28T05:34:01.514Z,1007.73
2019-02-28T05:34:41.829Z,1007.7
2019-02-28T05:35:25.095Z,1007.65
2019-02-28T05:36:04.287Z,1007.68
2019-02-28T05:36:43.253Z,1007.73
2019-02-28T05:37:23.676Z,1007.74
2019-02-28T05:38:04.057Z,1007.71
2019-02-28T05:38:44.503Z,1007.74
2019-02-28T05:39:25.215Z,1007.72
2019-02-28T05:40:06.785Z,1007.68
2019-02-28T05:40:46.133Z,1007.7
2019-02-28T05:43:17.032Z,1007.73
2019-02-28T05:43:57.373Z,1007.7
2019-02-28T05:44:40.264Z,1007.77
2019-02-28T05:45:18.182Z,1007.72
2019-02-28T05:45:59.421Z,1007.73
2019-02-28T05:46:39.047Z,1007.71
2019-02-28T05:47:19.468Z,1007.72
2019-02-28T05:47:59.888Z,1007.66
2019-02-28T05:48:40.335Z,1007.65
2019-02-28T05:49:20.795Z,1007.64
2019-02-28T05:50:01.169Z,1007.64
2019-02-28T05:50:41.582Z,1007.62
2019-02-28T05:51:24.833Z,1007.66
2019-02-28T05:52:02.431Z,1007.65
2019-02-28T05:52:42.817Z,1007.63
2019-02-28T05:53:23.256Z,1007.64
2019-02-28T05:54:03.679Z,1007.64
2019-02-28T05:54:47.180Z,1007.62
2019-02-28T05:55:26.252Z,1007.64
2019-02-28T05:56:06.658Z,1007.65
2019-02-28T05:56:47.073Z,1007.68
2019-02-28T05:57:27.512Z,1007.66
2019-02-28T05:58:08.753Z,1007.64
2019-02-28T05:58:52.243Z,1007.67
2019-02-28T05:59:30.075Z,1007.65
2019-02-28T06:00:10.278Z,1007.65
2019-02-28T06:00:50.623Z,1007.59
2019-02-28T06:01:31.044Z,1007.62
2019-02-28T06:02:11.481Z,1007.59
2019-02-28T06:02:54.367Z,1007.57
2019-02-28T06:03:32.345Z,1007.54
2019-02-28T06:04:12.744Z,1007.56
2019-02-28T06:04:53.204Z,1007.54
2019-02-28T06:05:33.607Z,1007.55
2019-02-28T06:06:13.955Z,1007.53
2019-02-28T06:06:54.616Z,1007.5
2019-02-28T06:07:34.766Z,1007.51
2019-02-28T06:08:15.211Z,1007.52
2019-02-28T06:08:55.598Z,1007.53
2019-02-28T06:09:36.059Z,1007.54
2019-02-28T06:10:16.496Z,1007.52
2019-02-28T06:11:00.588Z,1007.53
2019-02-28T06:11:37.221Z,1007.54
2019-02-28T06:12:17.610Z,1007.53
2019-02-28T06:12:58.059Z,1007.5
2019-02-28T06:13:38.440Z,1007.51
2019-02-28T06:14:18.840Z,1007.51
2019-02-28T06:15:03.080Z,1007.56
2019-02-28T06:15:39.700Z,1007.55
2019-02-28T06:16:20.095Z,1007.55
2019-02-28T06:17:00.876Z,1007.53
2019-02-28T06:17:41.324Z,1007.52
2019-02-28T06:18:21.696Z,1007.53
2019-02-28T06:19:04.498Z,1007.52
2019-02-28T06:19:43.433Z,1007.49
2019-02-28T06:20:22.921Z,1007.49
2019-02-28T06:21:03.317Z,1007.52
2019-02-28T06:21:43.742Z,1007.49
2019-02-28T06:22:24.141Z,1007.42
2019-02-28T06:23:06.241Z,1007.44
2019-02-28T06:23:45.108Z,1007.4
2019-02-28T06:24:25.494Z,1007.45
2019-02-28T06:25:05.957Z,1007.43
2019-02-28T06:25:46.377Z,1007.47
2019-02-28T06:26:27.204Z,1007.46
2019-02-28T06:27:07.683Z,1007.49
2019-02-28T06:27:50.228Z,1007.5
2019-02-28T06:28:30.960Z,1007.53
2019-02-28T06:29:11.200Z,1007.51
2019-02-28T06:29:49.605Z,1007.52
2019-02-28T06:30:30.028Z,1007.52
2019-02-28T06:31:14.207Z,1007.53
2019-02-28T06:31:51.750Z,1007.53
2019-02-28T06:32:32.274Z,1007.55
2019-02-28T06:33:12.762Z,1007.56
2019-02-28T06:33:54.614Z,1007.53
2019-02-28T06:34:33.662Z,1007.53
2019-02-28T06:35:17.181Z,1007.54
2019-02-28T06:35:54.561Z,1007.58
2019-02-28T06:36:34.911Z,1007.52
2019-02-28T06:37:15.275Z,1007.58
2019-02-28T06:37:55.691Z,1007.64
2019-02-28T06:38:36.129Z,1007.61
2019-02-28T06:39:17.536Z,1007.69
2019-02-28T06:39:58.569Z,1007.73
2019-02-28T06:40:37.479Z,1007.68
2019-02-28T06:41:17.903Z,1007.73
2019-02-28T06:41:58.277Z,1007.72
2019-02-28T06:42:38.678Z,1007.74
2019-02-28T06:43:19.585Z,1007.67
2019-02-28T06:45:36.371Z,1007.63
2019-02-28T06:46:14.424Z,1007.58
2019-02-28T06:46:54.809Z,1007.61
2019-02-28T06:47:35.201Z,1007.61
2019-02-28T06:48:15.617Z,1007.66
2019-02-28T06:49:00.838Z,1007.65
2019-02-28T06:49:40.766Z,1007.69
2019-02-28T06:53:56.693Z,1007.64
2019-02-28T06:54:39.827Z,1007.64
2019-02-28T06:55:17.771Z,1007.66
2019-02-28T06:55:58.160Z,1007.66
2019-02-28T06:56:38.557Z,1007.63
2019-02-28T06:57:20.010Z,1007.66
2019-02-28T06:58:00.453Z,1007.65
2019-02-28T06:58:40.805Z,1007.69
2019-02-28T06:59:21.246Z,1007.69
2019-02-28T07:00:01.645Z,1007.73
2019-02-28T07:00:44.147Z,1007.68
2019-02-28T07:01:22.957Z,1007.65
2019-02-28T07:02:02.926Z,1007.64
2019-02-28T07:02:43.323Z,1007.69
2019-02-28T07:03:23.702Z,1007.65
2019-02-28T07:04:04.381Z,1007.66
2019-02-28T07:04:45.430Z,1007.66
2019-02-28T07:05:26.248Z,1007.66
2019-02-28T07:06:05.598Z,1007.64
2019-02-28T07:06:48.005Z,1007.69
2019-02-28T07:07:30.457Z,1007.66
2019-02-28T07:08:10.862Z,1007.65
2019-02-28T07:08:51.360Z,1007.7
2019-02-28T07:09:33.529Z,1007.75
2019-02-28T07:10:12.631Z,1007.73
2019-02-28T07:10:52.567Z,1007.78
2019-02-28T07:11:34.806Z,1007.74
2019-02-28T07:12:15.208Z,1007.78
2019-02-28T07:12:55.642Z,1007.75
2019-02-28T07:13:38.743Z,1007.76
2019-02-28T07:14:16.527Z,1007.74
2019-02-28T07:14:56.917Z,1007.71
2019-02-28T07:15:37.502Z,1007.67
2019-02-28T07:16:17.898Z,1007.73
2019-02-28T07:16:58.874Z,1007.7
2019-02-28T07:17:39.332Z,1007.73
2019-02-28T07:18:20.008Z,1007.72
2019-02-28T07:19:00.160Z,1007.72
2019-02-28T07:19:40.591Z,1007.72
2019-02-28T07:20:21.018Z,1007.71
2019-02-28T07:21:01.396Z,1007.68
2019-02-28T07:21:43.849Z,1007.67
2019-02-28T07:22:22.218Z,1007.7
2019-02-28T07:23:02.622Z,1007.64
2019-02-28T07:23:43.047Z,1007.65
2019-02-28T07:24:23.435Z,1007.67
2019-02-28T07:25:03.864Z,1007.63
2019-02-28T07:25:47.295Z,1007.62
2019-02-28T07:26:24.699Z,1007.65
2019-02-28T07:27:05.112Z,1007.63
2019-02-28T07:27:45.550Z,1007.64
2019-02-28T07:28:26.071Z,1007.63
2019-02-28T07:29:10.913Z,1007.64
2019-02-28T07:29:47.916Z,1007.6
2019-02-28T07:30:28.304Z,1007.6
2019-02-28T07:31:08.770Z,1007.57
2019-02-28T07:31:49.223Z,1007.59
2019-02-28T07:32:34.268Z,1007.59
2019-02-28T07:33:12.487Z,1007.6
2019-02-28T07:33:53.911Z,1007.64
2019-02-28T07:34:34.327Z,1007.62
2019-02-28T07:35:14.879Z,1007.64
2019-02-28T07:35:55.252Z,1007.57
2019-02-28T07:36:35.626Z,1007.62
2019-02-28T07:37:18.456Z,1007.62
2019-02-28T07:37:56.530Z,1007.62
2019-02-28T07:38:37.814Z,1007.61
2019-02-28T07:39:19.137Z,1007.65
2019-02-28T07:39:58.807Z,1007.65
2019-02-28T07:40:39.289Z,1007.65
2019-02-28T07:41:20.364Z,1007.66
2019-02-28T07:42:02.093Z,1007.67
2019-02-28T07:42:40.587Z,1007.65
2019-02-28T07:45:34.203Z,1007.62
2019-02-28T07:49:45.664Z,1007.65
2019-02-28T07:55:15.872Z,1007.63
2019-02-28T07:55:56.263Z,1007.63
2019-02-28T07:56:42.465Z,1007.61
2019-02-28T07:57:17.941Z,1007.59
2019-02-28T07:57:57.678Z,1007.58
2019-02-28T07:58:37.949Z,1007.59
2019-02-28T07:59:18.381Z,1007.6
2019-02-28T07:59:59.953Z,1007.55
2019-02-28T08:00:40.196Z,1007.55
2019-02-28T08:01:20.338Z,1007.58
2019-02-28T08:02:03.154Z,1007.63
2019-02-28T08:02:41.622Z,1007.62
2019-02-28T08:03:22.288Z,1007.66
2019-02-28T08:04:03.102Z,1007.63
2019-02-28T08:04:43.712Z,1007.64
2019-02-28T08:05:29.589Z,1007.64
2019-02-28T08:06:05.552Z,1007.63
2019-02-28T08:06:44.717Z,1007.64
2019-02-28T08:07:25.133Z,1007.67
2019-02-28T08:08:05.569Z,1007.62
2019-02-28T08:08:47.986Z,1007.63
2019-02-28T08:09:28.215Z,1007.64
2019-02-28T08:10:08.646Z,1007.63
2019-02-28T08:10:49.285Z,1007.63
2019-02-28T08:11:29.459Z,1007.66
2019-02-28T08:12:09.874Z,1007.64
2019-02-28T08:12:51.422Z,1007.65
2019-02-28T08:13:34.531Z,1007.61
2019-02-28T08:14:15.006Z,1007.63
2019-02-28T08:14:58.144Z,1007.63
2019-02-28T08:15:38.520Z,1007.69
2019-02-28T08:16:18.905Z,1007.7
2019-02-28T08:17:01.862Z,1007.71
2019-02-28T08:17:43.838Z,1007.73
2019-02-28T08:18:23.279Z,1007.68
2019-02-28T08:19:03.700Z,1007.67
2019-02-28T08:19:44.165Z,1007.68
2019-02-28T08:20:24.655Z,1007.66
2019-02-28T08:21:05.268Z,1007.7
2019-02-28T08:21:49.463Z,1007.69
2019-02-28T08:22:25.922Z,1007.75
2019-02-28T08:23:06.431Z,1007.71
2019-02-28T08:23:46.883Z,1007.74
2019-02-28T08:24:27.280Z,1007.72
2019-02-28T08:25:08.567Z,1007.75
2019-02-28T08:25:48.166Z,1007.73
2019-02-28T08:26:29.248Z,1007.73
2019-02-28T08:27:09.672Z,1007.73
2019-02-28T08:27:50.106Z,1007.73
2019-02-28T08:28:35.475Z,1007.75
2019-02-28T08:29:11.711Z,1007.69
2019-02-28T08:29:51.451Z,1007.66
2019-02-28T08:30:32.294Z,1007.65
2019-02-28T08:31:13.464Z,1007.63
2019-02-28T08:31:53.939Z,1007.61
2019-02-28T08:32:34.435Z,1007.66
2019-02-28T08:33:16.243Z,1007.64
2019-02-28T08:33:56.191Z,1007.62
2019-02-28T08:34:36.139Z,1007.61
2019-02-28T08:35:16.562Z,1007.55
2019-02-28T08:35:57.044Z,1007.59
2019-02-28T08:36:37.487Z,1007.63
2019-02-28T08:37:18.933Z,1007.62
2019-02-28T08:37:58.241Z,1007.57
2019-02-28T08:38:38.742Z,1007.59
2019-02-28T08:39:19.166Z,1007.63
2019-02-28T08:40:00.662Z,1007.63
2019-02-28T08:40:40.293Z,1007.63
2019-02-28T08:41:22.425Z,1007.63
2019-02-28T08:42:04.315Z,1007.59
2019-02-28T08:42:41.808Z,1007.6
2019-02-28T08:43:26.995Z,1007.57
2019-02-28T08:44:02.695Z,1007.55
2019-02-28T08:44:43.103Z,1007.57
2019-02-28T08:45:23.504Z,1007.57
2019-02-28T08:46:09.423Z,1007.58
2019-02-28T08:46:46.360Z,1007.57
2019-02-28T08:47:26.108Z,1007.53
2019-02-28T08:48:06.573Z,1007.59
2019-02-28T08:48:46.984Z,1007.59
2019-02-28T08:49:27.369Z,1007.63
2019-02-28T08:50:07.772Z,1007.58
2019-02-28T08:52:26.779Z,1007.61
2019-02-28T08:53:07.302Z,1007.61
2019-02-28T08:53:51.163Z,1007.64
2019-02-28T08:54:28.917Z,1007.62
2019-02-28T08:55:09.602Z,1007.63
2019-02-28T08:55:50.801Z,1007.55
2019-02-28T08:56:32.232Z,1007.52
2019-02-28T08:57:12.971Z,1007.48
2019-02-28T08:57:55.800Z,1007.49
2019-02-28T08:58:32.798Z,1007.47
2019-02-28T08:59:18.140Z,1007.45
2019-02-28T08:59:56.105Z,1007.44
2019-02-28T09:00:35.271Z,1007.5
2019-02-28T09:01:14.896Z,1007.52
2019-02-28T09:01:55.290Z,1007.54
2019-02-28T09:02:35.832Z,1007.56
2019-02-28T09:03:16.344Z,1007.54
2019-02-28T09:03:59.412Z,1007.56
2019-02-28T09:04:41.138Z,1007.54
2019-02-28T09:05:17.762Z,1007.55
2019-02-28T09:06:00.847Z,1007.55
2019-02-28T09:06:40.873Z,1007.61
2019-02-28T09:07:19.190Z,1007.62
2019-02-28T09:08:01.454Z,1007.55
2019-02-28T09:08:41.872Z,1007.5
2019-02-28T09:09:22.296Z,1007.49
2019-02-28T09:10:02.729Z,1007.48
2019-02-28T09:10:43.600Z,1007.49
2019-02-28T09:11:23.555Z,1007.51
2019-02-28T09:12:04.110Z,1007.5
2019-02-28T09:12:44.526Z,1007.5
2019-02-28T09:13:25.168Z,1007.5
2019-02-28T09:14:05.319Z,1007.51
2019-02-28T09:14:45.765Z,1007.46
2019-02-28T09:15:29.713Z,1007.49
2019-02-28T09:16:06.604Z,1007.48
2019-02-28T09:16:47.037Z,1007.48
2019-02-28T09:17:28.066Z,1007.45
2019-02-28T09:18:08.508Z,1007.44
2019-02-28T09:18:48.881Z,1007.43
2019-02-28T09:19:29.365Z,1007.4
2019-02-28T09:20:10.488Z,1007.4
2019-02-28T09:20:50.456Z,1007.43
2019-02-28T09:21:31.211Z,1007.42
2019-02-28T09:22:11.675Z,1007.42
2019-02-28T09:22:52.118Z,1007.41
2019-02-28T09:23:34.369Z,1007.41
2019-02-28T09:24:13.645Z,1007.39
2019-02-28T09:24:54.502Z,1007.39
2019-02-28T09:25:34.783Z,1007.38
2019-02-28T09:26:15.737Z,1007.35
2019-02-28T09:26:56.362Z,1007.32
2019-02-28T09:27:38.753Z,1007.29
2019-02-28T09:28:18.158Z,1007.32
2019-02-28T09:29:00.496Z,1007.32
2019-02-28T09:29:40.899Z,1007.31
2019-02-28T09:30:21.464Z,1007.33
2019-02-28T09:31:04.858Z,1007.29
2019-02-28T09:31:44.027Z,1007.28
2019-02-28T09:32:23.925Z,1007.28
2019-02-28T09:33:05.129Z,1007.25
2019-02-28T09:33:46.539Z,1007.3
2019-02-28T09:34:30.597Z,1007.32
2019-02-28T09:35:12.910Z,1007.26
2019-02-28T09:35:49.165Z,1007.29
2019-02-28T09:36:29.602Z,1007.27
2019-02-28T09:37:10.148Z,1007.26
2019-02-28T09:37:50.513Z,1007.22
2019-02-28T09:38:30.914Z,1007.24
2019-02-28T09:39:12.006Z,1007.23
2019-02-28T09:39:54.209Z,1007.32
2019-02-28T09:40:35.278Z,1007.29
2019-02-28T09:41:19.034Z,1007.31
2019-02-28T09:41:57.851Z,1007.29
2019-02-28T09:42:38.388Z,1007.25
2019-02-28T09:43:19.287Z,1007.22
2019-02-28T09:44:00.270Z,1007.27
2019-02-28T09:44:39.773Z,1007.24
2019-02-28T09:45:21.193Z,1007.2
2019-02-28T09:46:04.803Z,1007.31
2019-02-28T09:46:50.668Z,1007.21
2019-02-28T09:47:31.125Z,1007.24
2019-02-28T09:48:11.692Z,1007.19
2019-02-28T09:48:53.512Z,1007.26
2019-02-28T09:49:36.891Z,1007.17